KGSP

KGSP

14192
0

에 오신 것을 환영합니다 등록 !, 세계 최대 외환 포럼 중 하나, 어디 가장 완벽하고 신뢰할 수있는 외환 정보를 찾을 수있을 것입니다 ...
Visual slope indicator: 4-box VASI on right (3.00 degrees glide path) RVR equipment: … KGSP : 050053Z 16004KT 10SM CLR 27/18 A3008 RMK AO2 SLP172 T02670183 KGMU
DRAW_HISTOGRAM 유형의 곡선을 구현합니다.. 사용 된 지표: 사용 된 맞춤형 지표: 주문 관리 특성: 다른 특징들: 다운로드: KGSP.mq4
//+—– + //| Digital High Pass (KGHP) Filter | //| Created by newdigital | //| Using the Generator of …

 

이진 옵션 표시 – 다운로드 지침

KGSP is a Metatrader 4 (MT4) 인디케이터와 외환 인디케이터의 본질은 축적 이력 데이터를 변환하는 것이다.

KGSP provides for an opportunity to detect various peculiarities and patterns in price dynamics which are invisible to the naked eye.

이 정보에 기초, 상인은 더 가격의 움직임을 가정하고 이에 따른 전략을 조정할 수 있습니다.

How to install KGSP.mq4?

  • Download KGSP.mq4
  • Copy KGSP.mq4 to your Metatrader Directory / 전문가 / 지표 /
  • 시작 또는 메타 트레이더 클라이언트를 다시 시작
  • 당신이 당신의 지표를 테스트 할 선택 차트 및 기준 시간
  • 수색 “사용자 정의 표시” 당신의 달력에서 주로 당신의 메타 트레이더 클라이언트에 남아
  • Right click on KGSP.mq4
  • 차트에 연결
  • 설정 또는 확인을 누릅니다 수정
  • Indicator KGSP.mq4 is available on your Chart

How to remove KGSP.mq4 from your Metatrader Chart?

  • 표시가 메타 트레이더 클라이언트에서 실행되는 차트를 선택
  • 오른쪽 차트에 클릭
  • “표시 목록”
  • 표시를 선택하고 삭제

이진 옵션 표시를 다운로드하려면 여기 아래를 클릭:

KGSP

이전 기사LinearRegSlope V1
다음 기사KAGI 1

코멘트가 없습니다

회신을 남겨주